Terminal Aerodrome Forecast
Issued by NWS

Home | Current Version | Previous Version | Graphics & Text | Print | Product List | Glossary On
Versions: 1 2 3 4 5 6 7 8 9 10 11 12 13 14 15 16 17 18 19 20
000
FTUS43 KBIS 221720
TAFJMS
TAF
KJMS 221720Z 2218/2318 04010KT P6SM BKN015 OVC100
     FM222000 03009KT P6SM VCTS OVC008CB
     FM230000 33009KT P6SM OVC008
     FM230300 33011KT P6SM VCSH BKN008
     FM230900 34009KT P6SM VCSH OVC015
     FM231200 36007KT P6SM OVC015
     FM231700 36009KT P6SM OVC045=

USA.gov is the U.S. government's official web portal to all federal, state and local government web resources and services.